Time;durP1;ratioP1;P1;durP2;ratioP2;P2;SDS_P1;SDS_P2;PMS_P1;PMS_P2;Temp;Humidity;BMP_temperature;BMP_pressure;BME280_temperature;BME280_humidity;BME280_pressure;Samples;Min_cycle;Max_cycle;Signal;HPM_P1;HPM_P2
2021/04/25 00:02:38;;;;;;;1999.90;999.90;;;;;;;5.59;100.00;-18059.22;4966342;29;20287;-29
2021/04/25 00:05:24;;;;;;;1999.90;999.90;;;;;;;6.02;100.00;-18070.63;4963240;29;20844;-29
2021/04/25 00:08:11;;;;;;;1999.90;999.90;;;;;;;5.91;100.00;-18067.66;4962343;29;20925;-30
2021/04/25 00:10:56;;;;;;;1999.90;999.90;;;;;;;5.18;100.00;-18048.47;4963240;29;20451;-30
2021/04/25 00:13:43;;;;;;;1999.90;999.90;;;;;;;5.36;100.00;-18053.03;4962523;29;20486;-29
2021/04/25 00:16:30;;;;;;;1999.90;999.90;;;;;;;5.61;100.00;-18059.75;4962420;29;20744;-29
2021/04/25 00:19:19;;;;;;;1999.90;999.90;;;;;;;5.85;100.00;-18066.19;4962355;29;20874;-30
2021/04/25 00:22:05;;;;;;;1999.90;999.90;;;;;;;5.44;100.00;-18055.19;4962633;29;20447;-30
2021/04/25 00:24:51;;;;;;;1999.90;999.90;;;;;;;5.55;100.00;-18058.13;4962487;28;20440;-30
2021/04/25 00:27:41;;;;;;;1999.90;999.90;;;;;;;5.81;100.00;-18064.97;4962393;29;20607;-30
2021/04/25 00:30:27;;;;;;;1999.90;999.90;;;;;;;5.82;100.00;-18065.38;4965690;29;20894;-30
2021/04/25 00:33:14;;;;;;;1999.90;999.90;;;;;;;5.65;100.00;-18060.69;4967106;29;20547;-30
2021/04/25 00:35:59;;;;;;;1999.90;999.90;;;;;;;5.67;100.00;-18061.34;4961326;29;20575;-30
2021/04/25 00:38:45;;;;;;;1999.90;999.90;;;;;;;5.38;100.00;-18053.56;4963651;29;20451;-30
2021/04/25 00:41:31;;;;;;;1999.90;999.90;;;;;;;5.19;100.00;-18048.75;4968826;29;20464;-30
2021/04/25 00:44:24;;;;;;;1999.90;999.90;;;;;;;5.28;100.00;-18050.88;4967111;29;20765;-29
2021/04/25 00:47:10;;;;;;;1999.90;999.90;;;;;;;5.16;100.00;-18047.81;4968705;29;20480;-30
2021/04/25 00:49:57;;;;;;;1999.90;999.90;;;;;;;5.14;100.00;-18047.41;4968075;29;20451;-30
2021/04/25 00:52:45;;;;;;;1999.90;999.90;;;;;;;5.02;100.00;-18044.19;4968176;29;20491;-30
2021/04/25 00:55:32;;;;;;;1999.90;999.90;;;;;;;4.89;100.00;-18040.69;4967693;29;20859;-30
2021/04/25 00:58:18;;;;;;;1999.90;999.90;;;;;;;4.75;100.00;-18037.06;4967786;29;20519;-30
2021/04/25 01:01:04;;;;;;;1999.90;999.90;;;;;;;4.73;100.00;-18036.38;4969168;29;20583;-30
2021/04/25 01:03:50;;;;;;;1999.90;999.90;;;;;;;4.71;100.00;-18035.97;4969603;29;20500;-30
2021/04/25 01:06:38;;;;;;;1999.90;999.90;;;;;;;4.64;100.00;-18033.97;4969499;29;20459;-30
2021/04/25 01:09:28;;;;;;;1999.90;999.90;;;;;;;4.70;100.00;-18035.72;4965779;29;20451;-30
2021/04/25 01:12:14;;;;;;;1999.90;999.90;;;;;;;4.53;100.00;-18031.00;4963494;29;20550;-29
2021/04/25 01:15:00;;;;;;;1999.90;999.90;;;;;;;4.63;100.00;-18033.69;4961383;29;20616;-29
2021/04/25 01:17:47;;;;;;;1999.90;999.90;;;;;;;4.58;100.00;-18032.50;4961147;29;20738;-29
2021/04/25 01:20:33;;;;;;;1999.90;999.90;;;;;;;4.59;100.00;-18032.63;4961493;29;20959;-29
2021/04/25 01:23:20;;;;;;;1999.90;999.90;;;;;;;4.42;100.00;-18028.19;4962247;29;20443;-29
2021/04/25 01:26:07;;;;;;;1999.90;999.90;;;;;;;4.47;100.00;-18029.66;4962078;29;20459;-30
2021/04/25 01:28:54;;;;;;;1999.90;999.90;;;;;;;4.36;100.00;-18026.72;4961269;29;20487;-30
2021/04/25 01:31:40;;;;;;;1999.90;999.90;;;;;;;4.40;100.00;-18027.66;4963297;29;20792;-29
2021/04/25 01:34:26;;;;;;;1999.90;999.90;;;;;;;4.24;100.00;-18023.50;4969543;29;20571;-29
2021/04/25 01:37:12;;;;;;;1999.90;999.90;;;;;;;4.13;100.00;-18020.53;4966596;28;20900;-29
2021/04/25 01:39:58;;;;;;;1999.90;999.90;;;;;;;4.13;100.00;-18020.66;4961102;29;20451;-29
2021/04/25 01:42:44;;;;;;;1999.90;999.90;;;;;;;4.13;100.00;-18020.66;4961619;29;20610;-29
2021/04/25 01:45:31;;;;;;;1999.90;999.90;;;;;;;4.11;100.00;-18020.00;4964559;29;20538;-29
2021/04/25 01:48:17;;;;;;;1999.90;999.90;;;;;;;4.06;100.00;-18018.66;4961506;29;20452;-29
2021/04/25 01:51:07;;;;;;;1999.90;999.90;;;;;;;3.95;100.00;-18015.69;4961167;29;20452;-29
2021/04/25 01:53:52;;;;;;;1999.90;999.90;;;;;;;3.90;100.00;-18014.50;4963213;29;20483;-29
2021/04/25 01:56:39;;;;;;;1999.90;999.90;;;;;;;3.85;100.00;-18013.00;4969433;29;20522;-29
2021/04/25 01:59:26;;;;;;;1999.90;999.90;;;;;;;3.89;100.00;-18014.22;4969100;29;20515;-30
2021/04/25 02:02:12;;;;;;;1999.90;999.90;;;;;;;3.85;100.00;-18013.16;4971131;29;20452;-29
2021/04/25 02:05:00;;;;;;;1999.90;999.90;;;;;;;3.85;100.00;-18013.16;4970871;29;20507;-29
2021/04/25 02:07:46;;;;;;;1999.90;999.90;;;;;;;3.87;100.00;-18013.69;4967543;29;20447;-29
2021/04/25 02:10:32;;;;;;;1999.90;999.90;;;;;;;3.76;100.00;-18010.88;4971444;29;20435;-29
2021/04/25 02:13:19;;;;;;;1999.90;999.90;;;;;;;3.77;100.00;-18011.13;4976657;29;20462;-29
2021/04/25 02:16:06;;;;;;;1999.90;999.90;;;;;;;3.68;100.00;-18008.56;4970991;29;20451;-29
2021/04/25 02:18:51;;;;;;;1999.90;999.90;;;;;;;3.75;100.00;-18010.59;4967666;29;20878;-29
2021/04/25 02:21:37;;;;;;;1999.90;999.90;;;;;;;3.86;100.00;-18013.28;4966237;29;20454;-29
2021/04/25 02:24:23;;;;;;;1999.90;999.90;;;;;;;3.97;100.00;-18016.25;4961990;29;20898;-29
2021/04/25 02:27:10;;;;;;;1999.90;999.90;;;;;;;3.94;100.00;-18015.44;4961070;29;20475;-29
2021/04/25 02:29:57;;;;;;;1999.90;999.90;;;;;;;4.03;100.00;-18017.97;4960376;29;20451;-29
2021/04/25 02:32:43;;;;;;;1999.90;999.90;;;;;;;4.12;100.00;-18020.28;4959354;29;20455;-29
2021/04/25 02:35:31;;;;;;;1999.90;999.90;;;;;;;4.10;100.00;-18019.88;4959892;29;20448;-29
2021/04/25 02:38:23;;;;;;;1999.90;999.90;;;;;;;4.22;100.00;-18022.94;4960087;29;20615;-29
2021/04/25 02:41:10;;;;;;;1999.90;999.90;;;;;;;4.30;100.00;-18025.09;4961513;29;20508;-29
2021/04/25 02:43:58;;;;;;;1999.90;999.90;;;;;;;4.34;100.00;-18026.03;4975063;29;20528;-29
2021/04/25 02:46:45;;;;;;;1999.90;999.90;;;;;;;4.32;100.00;-18025.50;4975570;29;20527;-29
2021/04/25 02:49:31;;;;;;;1999.90;999.90;;;;;;;4.32;100.00;-18025.66;4963318;28;20542;-29
2021/04/25 02:52:25;;;;;;;1999.90;999.90;;;;;;;4.48;100.00;-18029.81;4960197;29;20455;-29
2021/04/25 02:55:13;;;;;;;1999.90;999.90;;;;;;;4.53;100.00;-18031.16;4964014;29;20730;-29
2021/04/25 02:58:03;;;;;;;1999.90;999.90;;;;;;;4.49;100.00;-18030.22;4961998;29;20601;-29
2021/04/25 03:00:49;;;;;;;1999.90;999.90;;;;;;;4.45;100.00;-18029.00;4961301;29;20537;-29
2021/04/25 03:03:36;;;;;;;1999.90;999.90;;;;;;;4.79;100.00;-18038.13;4965730;29;20471;-29
2021/04/25 03:06:21;;;;;;;1999.90;999.90;;;;;;;4.73;100.00;-18036.38;4959683;29;20480;-29
2021/04/25 03:09:08;;;;;;;1999.90;999.90;;;;;;;4.79;100.00;-18038.00;4959213;29;20523;-29
2021/04/25 03:11:56;;;;;;;1999.90;999.90;;;;;;;4.72;100.00;-18036.13;4959506;29;20447;-29
2021/04/25 03:14:42;;;;;;;1999.90;999.90;;;;;;;4.85;100.00;-18039.59;4959147;29;20487;-29
2021/04/25 03:17:28;;;;;;;1999.90;999.90;;;;;;;4.91;100.00;-18041.22;4958819;29;20451;-29
2021/04/25 03:20:17;;;;;;;1999.90;999.90;;;;;;;5.01;100.00;-18043.91;4959276;29;20603;-29
2021/04/25 03:23:03;;;;;;;1999.90;999.90;;;;;;;4.81;100.00;-18038.66;4959333;29;20468;-29
2021/04/25 03:25:50;;;;;;;1999.90;999.90;;;;;;;4.56;100.00;-18031.81;4958908;29;20750;-29
2021/04/25 03:28:36;;;;;;;1999.90;999.90;;;;;;;4.43;100.00;-18028.59;4959295;29;20451;-29
2021/04/25 03:31:21;;;;;;;1999.90;999.90;;;;;;;4.60;100.00;-18032.91;4958876;29;20744;-29
2021/04/25 03:34:08;;;;;;;1999.90;999.90;;;;;;;4.63;100.00;-18033.69;4959252;29;20826;-28
2021/04/25 03:36:55;;;;;;;1999.90;999.90;;;;;;;4.74;100.00;-18036.66;4959350;29;20471;-29
2021/04/25 03:39:40;;;;;;;1999.90;999.90;;;;;;;4.70;100.00;-18035.59;4959020;29;20712;-29
2021/04/25 03:42:26;;;;;;;1999.90;999.90;;;;;;;4.89;100.00;-18040.56;4959098;29;20451;-29
2021/04/25 03:45:14;;;;;;;1999.90;999.90;;;;;;;5.08;100.00;-18045.78;4958851;29;20464;-31
2021/04/25 03:47:59;;;;;;;1999.90;999.90;;;;;;;4.95;100.00;-18042.16;4958653;29;20590;-31
2021/04/25 03:50:46;;;;;;;1999.90;999.90;;;;;;;5.09;100.00;-18045.91;4958704;29;20463;-31
2021/04/25 03:53:32;;;;;;;1999.90;999.90;;;;;;;5.29;100.00;-18051.28;4958539;29;20499;-30
2021/04/25 03:56:18;;;;;;;1999.90;999.90;;;;;;;5.33;100.00;-18052.22;4958902;29;20452;-30
2021/04/25 03:59:04;;;;;;;1999.90;999.90;;;;;;;5.39;100.00;-18053.84;4958927;29;20558;-30
2021/04/25 04:01:49;;;;;;;1999.90;999.90;;;;;;;5.48;100.00;-18056.25;4961068;29;20451;-30
2021/04/25 04:04:37;;;;;;;1999.90;999.90;;;;;;;5.48;100.00;-18056.25;4962235;29;20447;-30
2021/04/25 04:07:23;;;;;;;1999.90;999.90;;;;;;;5.09;100.00;-18046.06;4962613;29;20452;-30
2021/04/25 04:10:11;;;;;;;1999.90;999.90;;;;;;;5.24;100.00;-18049.94;4962246;29;20504;-30
2021/04/25 04:12:57;;;;;;;1999.90;999.90;;;;;;;5.40;100.00;-18054.09;4962196;29;20886;-30
2021/04/25 04:15:43;;;;;;;1999.90;999.90;;;;;;;5.39;100.00;-18053.84;4962291;29;20918;-30
2021/04/25 04:18:29;;;;;;;1999.90;999.90;;;;;;;5.47;100.00;-18056.00;4962026;29;20854;-31
2021/04/25 04:21:15;;;;;;;1999.90;999.90;;;;;;;5.54;100.00;-18058.00;4962195;29;20451;-30
2021/04/25 04:24:01;;;;;;;1999.90;999.90;;;;;;;5.52;100.00;-18057.34;4962130;29;20443;-30
2021/04/25 04:26:47;;;;;;;1999.90;999.90;;;;;;;5.52;100.00;-18057.34;4962336;29;20452;-30
2021/04/25 04:29:33;;;;;;;1999.90;999.90;;;;;;;5.66;100.00;-18061.09;4961972;29;20458;-30
2021/04/25 04:32:19;;;;;;;1999.90;999.90;;;;;;;5.33;100.00;-18052.22;4961926;29;20451;-30
2021/04/25 04:35:06;;;;;;;1999.90;999.90;;;;;;;5.56;100.00;-18058.28;4961765;29;20949;-30
2021/04/25 04:37:54;;;;;;;1999.90;999.90;;;;;;;5.76;100.00;-18063.78;4962194;29;20447;-30
2021/04/25 04:40:39;;;;;;;1999.90;999.90;;;;;;;5.67;100.00;-18061.34;4961880;29;20869;-30
2021/04/25 04:43:26;;;;;;;1999.90;999.90;;;;;;;5.66;100.00;-18061.09;4961974;29;20455;-30
2021/04/25 04:46:16;;;;;;;1999.90;999.90;;;;;;;5.74;100.00;-18063.25;4970052;29;20537;-30
2021/04/25 04:49:02;;;;;;;1999.90;999.90;;;;;;;5.35;100.00;-18052.78;4968467;29;20447;-30
2021/04/25 04:51:48;;;;;;;1999.90;999.90;;;;;;;5.54;100.00;-18057.88;4962000;29;20450;-30
2021/04/25 04:54:34;;;;;;;1999.90;999.90;;;;;;;5.69;98.42;-18061.75;4923490;29;20557;-30
2021/04/25 04:57:22;;;;;;;1999.90;999.90;;;;;;;5.91;97.66;-18067.66;4920705;29;20469;-30
2021/04/25 05:00:17;;;;;;;1999.90;999.90;;;;;;;5.78;95.81;-18064.31;4915497;29;20465;-30
2021/04/25 05:03:04;;;;;;;1999.90;999.90;;;;;;;5.82;93.41;-18065.38;4914191;29;20887;-30
2021/04/25 05:05:51;;;;;;;1999.90;999.90;;;;;;;5.67;92.65;-18061.34;4907413;29;20550;-30
2021/04/25 05:08:37;;;;;;;1999.90;999.90;;;;;;;6.26;91.36;-18076.94;4908531;29;20903;-30
2021/04/25 05:11:23;;;;;;;1999.90;999.90;;;;;;;6.23;89.50;-18076.13;4919293;29;20227;-30
2021/04/25 05:14:09;;;;;;;1999.90;999.90;;;;;;;6.16;89.23;-18074.25;4922256;29;20233;-30
2021/04/25 05:16:56;;;;;;;1999.90;999.90;;;;;;;5.93;90.33;-18068.06;4906650;29;20209;-30
2021/04/25 05:19:42;;;;;;;1999.90;999.90;;;;;;;6.23;90.65;-18076.25;4916030;29;20469;-30
2021/04/25 05:22:27;;;;;;;1999.90;999.90;;;;;;;6.35;88.73;-18079.34;4916426;29;20231;-30
2021/04/25 05:25:14;;;;;;;1999.90;999.90;;;;;;;6.51;88.23;-18083.63;4930198;29;20230;-30
2021/04/25 05:28:00;;;;;;;1999.90;999.90;;;;;;;6.44;84.43;-18081.75;4922927;29;20484;-30
2021/04/25 05:30:45;;;;;;;1999.90;999.90;;;;;;;6.34;85.71;-18078.94;4922913;29;20213;-30
2021/04/25 05:33:33;;;;;;;1999.90;999.90;;;;;;;6.40;86.43;-18080.69;4911052;29;20233;-30
2021/04/25 05:36:19;;;;;;;1999.90;999.90;;;;;;;6.73;86.88;-18089.41;4919492;29;20213;-30
2021/04/25 05:39:06;;;;;;;1999.90;999.90;;;;;;;6.83;85.92;-18091.94;4906555;29;20213;-30
2021/04/25 05:41:52;;;;;;;1999.90;999.90;;;;;;;6.25;88.39;-18076.53;4921505;29;21562;-30
2021/04/25 05:44:39;;;;;;;1999.90;999.90;;;;;;;6.16;88.39;-18074.25;4914528;29;20293;-30
2021/04/25 05:47:24;;;;;;;1999.90;999.90;;;;;;;6.40;87.62;-18080.53;4918503;29;20214;-30
2021/04/25 05:50:15;;;;;;;1999.90;999.90;;;;;;;6.85;87.42;-18092.47;4920399;29;20627;-30
2021/04/25 05:53:02;;;;;;;1999.90;999.90;;;;;;;6.86;87.03;-18092.88;4931217;29;20248;-30
2021/04/25 05:55:48;;;;;;;1999.90;999.90;;;;;;;6.38;88.78;-18080.16;4941906;29;20208;-30
2021/04/25 05:58:37;;;;;;;1999.90;999.90;;;;;;;6.85;89.34;-18092.47;4943890;29;20237;-30
2021/04/25 06:01:26;;;;;;;1999.90;999.90;;;;;;;6.62;89.23;-18086.31;4941600;29;20203;-30
2021/04/25 06:04:12;;;;;;;1999.90;999.90;;;;;;;7.09;89.99;-18098.91;4941044;29;20205;-30
2021/04/25 06:06:58;;;;;;;1999.90;999.90;;;;;;;6.85;84.76;-18092.63;4941678;29;20204;-30
2021/04/25 06:09:46;;;;;;;1999.90;999.90;;;;;;;6.69;87.03;-18088.34;4941407;29;20599;-30
2021/04/25 06:12:32;;;;;;;1999.90;999.90;;;;;;;6.82;84.46;-18091.69;4941299;29;20200;-30
2021/04/25 06:15:23;;;;;;;1999.90;999.90;;;;;;;6.90;85.76;-18093.97;4941166;29;20348;-30
2021/04/25 06:18:09;;;;;;;1999.90;999.90;;;;;;;6.96;84.60;-18095.44;4941083;29;20272;-30
2021/04/25 06:20:57;;;;;;;1999.90;999.90;;;;;;;6.35;83.53;-18079.22;4940936;29;20200;-30
2021/04/25 06:23:43;;;;;;;1999.90;999.90;;;;;;;6.59;84.33;-18085.50;4940634;29;20221;-30
2021/04/25 06:26:29;;;;;;;1999.90;999.90;;;;;;;7.00;83.40;-18096.50;4941193;29;20202;-30
2021/04/25 06:29:15;;;;;;;1999.90;999.90;;;;;;;6.64;83.27;-18086.84;4943169;29;20267;-30
2021/04/25 06:32:02;;;;;;;1999.90;999.90;;;;;;;6.88;84.08;-18093.28;4946346;29;20475;-30
2021/04/25 06:34:50;;;;;;;1999.90;999.90;;;;;;;6.85;84.01;-18092.47;4941907;29;20344;-30
2021/04/25 06:37:36;;;;;;;1999.90;999.90;;;;;;;7.14;83.64;-18100.25;4941640;29;20212;-30
2021/04/25 06:40:25;;;;;;;1999.90;999.90;;;;;;;7.50;80.77;-18109.78;4947222;29;20196;-30
2021/04/25 06:43:12;;;;;;;1999.90;999.90;;;;;;;7.14;80.04;-18100.25;4959712;29;20494;-30
2021/04/25 06:46:03;;;;;;;1999.90;999.90;;;;;;;7.71;82.02;-18115.13;4960010;29;20360;-30
2021/04/25 06:48:51;;;;;;;1999.90;999.90;;;;;;;8.02;79.07;-18123.31;4960074;29;20291;-30
2021/04/25 06:51:38;;;;;;;1999.90;999.90;;;;;;;8.03;77.54;-18123.72;4959963;29;20213;-30
2021/04/25 06:54:23;;;;;;;1999.90;999.90;;;;;;;7.46;77.34;-18108.56;4959724;29;20323;-30
2021/04/25 06:57:13;;;;;;;1999.90;999.90;;;;;;;7.50;80.34;-18109.66;4960046;29;20606;-30
2021/04/25 07:00:03;;;;;;;1999.90;999.90;;;;;;;8.02;78.19;-18123.44;4960153;29;20669;-30
2021/04/25 07:02:49;;;;;;;1999.90;999.90;;;;;;;8.37;77.24;-18132.69;4959595;29;20605;-30
2021/04/25 07:05:35;;;;;;;1999.90;999.90;;;;;;;8.75;73.89;-18142.59;4959573;29;20196;-30
2021/04/25 07:08:25;;;;;;;1999.90;999.90;;;;;;;8.68;74.74;-18140.72;4960751;29;20588;-30
2021/04/25 07:11:10;;;;;;;1999.90;999.90;;;;;;;8.37;74.33;-18132.69;4959431;29;20471;-30
2021/04/25 07:13:57;;;;;;;1999.90;999.90;;;;;;;8.39;72.23;-18133.09;4959893;29;20286;-30
2021/04/25 07:16:44;;;;;;;1999.90;999.90;;;;;;;8.36;75.12;-18132.28;4959796;29;20219;-30
2021/04/25 07:19:30;;;;;;;1999.90;999.90;;;;;;;8.73;73.91;-18142.19;4959894;29;20204;-30
2021/04/25 07:22:16;;;;;;;1999.90;999.90;;;;;;;8.10;77.88;-18125.59;4961227;29;20208;-31
2021/04/25 07:25:02;;;;;;;1999.90;999.90;;;;;;;8.15;74.59;-18126.78;4959516;29;20609;-30
2021/04/25 07:27:48;;;;;;;1999.90;999.90;;;;;;;7.88;78.71;-18119.84;4959976;29;20207;-30
2021/04/25 07:30:34;;;;;;;1999.90;999.90;;;;;;;8.32;76.32;-18131.34;4959601;29;20211;-30
2021/04/25 07:33:21;;;;;;;1999.90;999.90;;;;;;;8.06;74.63;-18124.53;4959359;29;20268;-30
2021/04/25 07:36:09;;;;;;;1999.90;999.90;;;;;;;8.08;75.79;-18124.91;4961349;28;20714;-30
2021/04/25 07:38:55;;;;;;;1999.90;999.90;;;;;;;8.58;75.69;-18138.19;4963893;29;20208;-30
2021/04/25 07:41:41;;;;;;;1999.90;999.90;;;;;;;8.56;75.10;-18137.78;4963405;29;20204;-30
2021/04/25 07:44:27;;;;;;;1999.90;999.90;;;;;;;8.71;75.02;-18141.53;4965011;29;20590;-30
2021/04/25 07:47:16;;;;;;;1999.90;999.90;;;;;;;8.15;76.18;-18126.78;4967146;29;20200;-30
2021/04/25 07:50:05;;;;;;;1999.90;999.90;;;;;;;7.94;80.47;-18121.31;4963313;29;20291;-30
2021/04/25 07:52:51;;;;;;;1999.90;999.90;;;;;;;8.87;77.00;-18145.81;4962872;29;20239;-30
2021/04/25 07:55:37;;;;;;;1999.90;999.90;;;;;;;8.42;74.39;-18133.91;4969545;29;20299;-30
2021/04/25 07:58:26;;;;;;;1999.90;999.90;;;;;;;8.05;74.15;-18124.13;4967722;29;20311;-30
2021/04/25 08:01:14;;;;;;;1999.90;999.90;;;;;;;8.70;73.41;-18141.41;4965063;29;20203;-30
2021/04/25 08:04:01;;;;;;;1999.90;999.90;;;;;;;8.10;77.68;-18125.47;4963026;29;20207;-30
2021/04/25 08:06:50;;;;;;;1999.90;999.90;;;;;;;8.63;75.13;-18139.66;4962622;29;20596;-30
2021/04/25 08:09:37;;;;;;;1999.90;999.90;;;;;;;8.53;74.35;-18136.97;4974966;29;20256;-30
2021/04/25 08:12:23;;;;;;;1999.90;999.90;;;;;;;8.51;72.62;-18136.31;4979775;29;20228;-30
2021/04/25 08:15:10;;;;;;;1999.90;999.90;;;;;;;8.18;73.50;-18127.59;4978194;29;20285;-31
2021/04/25 08:17:56;;;;;;;1999.90;999.90;;;;;;;8.77;71.37;-18143.28;4974810;29;20209;-31
2021/04/25 08:20:43;;;;;;;1999.90;999.90;;;;;;;8.59;73.19;-18138.47;4970970;29;20208;-29
2021/04/25 08:23:29;;;;;;;1999.90;999.90;;;;;;;8.59;70.24;-18138.59;4970079;29;20263;-29
2021/04/25 08:26:17;;;;;;;1999.90;999.90;;;;;;;8.89;69.96;-18146.50;4969997;29;20208;-29
2021/04/25 08:29:03;;;;;;;1999.90;999.90;;;;;;;9.14;72.29;-18153.06;4965167;29;20208;-29
2021/04/25 08:31:51;;;;;;;1999.90;999.90;;;;;;;8.87;69.19;-18145.81;4961821;29;20362;-29
2021/04/25 08:34:40;;;;;;;1999.90;999.90;;;;;;;8.56;71.22;-18137.66;4961621;29;20305;-29
2021/04/25 08:37:27;;;;;;;1999.90;999.90;;;;;;;9.02;70.44;-18149.69;4961445;29;20593;-29
2021/04/25 08:40:14;;;;;;;1999.90;999.90;;;;;;;8.60;71.85;-18138.72;4962688;29;20213;-29
2021/04/25 08:43:04;;;;;;;1999.90;999.90;;;;;;;8.96;72.48;-18148.22;4963537;29;20204;-29
2021/04/25 08:45:50;;;;;;;1999.90;999.90;;;;;;;8.80;71.76;-18143.94;4962209;28;20487;-29
2021/04/25 08:48:46;;;;;;;1999.90;999.90;;;;;;;8.49;73.66;-18135.91;4963632;29;20204;-29
2021/04/25 08:51:35;;;;;;;1999.90;999.90;;;;;;;8.78;73.28;-18143.41;4971396;29;20199;-29
2021/04/25 08:54:23;;;;;;;1999.90;999.90;;;;;;;8.86;71.51;-18145.69;4972917;29;20287;-29
2021/04/25 08:57:09;;;;;;;1999.90;999.90;;;;;;;9.09;70.63;-18151.56;4978239;29;20233;-29
2021/04/25 08:59:55;;;;;;;1999.90;999.90;;;;;;;9.52;69.33;-18163.09;4964053;29;20307;-29
2021/04/25 09:02:44;;;;;;;1999.90;999.90;;;;;;;9.52;70.30;-18162.94;4966723;29;20224;-30
2021/04/25 09:05:33;;;;;;;1999.90;999.90;;;;;;;9.87;66.49;-18172.31;4962551;29;20192;-30
2021/04/25 09:08:19;;;;;;;1999.90;999.90;;;;;;;9.94;64.41;-18174.19;4961528;29;20524;-29
2021/04/25 09:11:06;;;;;;;1999.90;999.90;;;;;;;9.98;64.46;-18175.13;4961612;29;20207;-30
2021/04/25 09:14:15;;;;;;;1999.90;999.90;;;;;;;10.36;64.49;-18185.16;4961976;29;20593;-30
2021/04/25 09:17:04;;;;;;;1999.90;999.90;;;;;;;9.42;68.82;-18160.28;4963750;29;20214;-30
2021/04/25 09:19:54;;;;;;;1999.90;999.90;;;;;;;9.35;68.27;-18158.53;4961885;29;20351;-30
2021/04/25 09:22:43;;;;;;;1999.90;999.90;;;;;;;9.35;67.04;-18158.41;4961075;29;20208;-29
2021/04/25 09:25:30;;;;;;;1999.90;999.90;;;;;;;9.54;66.16;-18163.50;4960805;29;20196;-30
2021/04/25 09:28:17;;;;;;;1999.90;999.90;;;;;;;9.77;66.81;-18169.50;4962091;29;20208;-30
2021/04/25 09:31:11;;;;;;;1999.90;999.90;;;;;;;9.99;66.46;-18175.41;4963789;29;20263;-30
2021/04/25 09:33:58;;;;;;;1999.90;999.90;;;;;;;10.42;63.95;-18186.63;4963346;29;20312;-41
2021/04/25 09:36:44;;;;;;;1999.90;999.90;;;;;;;10.96;63.19;-18200.94;4961864;29;20209;-30
2021/04/25 09:39:30;;;;;;;1999.90;999.90;;;;;;;9.74;64.99;-18168.72;4961070;29;20199;-30
2021/04/25 09:42:16;;;;;;;1999.90;999.90;;;;;;;9.91;66.23;-18173.25;4964967;29;20618;-30
2021/04/25 09:45:25;;;;;;;1999.90;999.90;;;;;;;9.71;66.24;-18168.03;4962845;29;20248;-29
2021/04/25 09:48:22;;;;;;;1999.90;999.90;;;;;;;10.06;65.67;-18177.13;4965094;29;20203;-30
2021/04/25 09:51:14;;;;;;;1999.90;999.90;;;;;;;10.47;65.61;-18188.09;4963786;29;20224;-30
2021/04/25 09:54:04;;;;;;;1999.90;999.90;;;;;;;9.62;65.90;-18165.75;4963690;29;20313;-30
2021/04/25 09:56:50;;;;;;;1999.90;999.90;;;;;;;9.40;68.48;-18159.75;4962968;29;20302;-30
2021/04/25 09:59:51;;;;;;;1999.90;999.90;;;;;;;10.65;63.37;-18192.91;4966924;28;20199;-30
2021/04/25 10:02:59;;;;;;;1999.90;999.90;;;;;;;10.99;62.61;-18201.88;4962018;29;20204;-30
2021/04/25 10:05:59;;;;;;;1999.90;999.90;;;;;;;9.93;64.17;-18173.91;4965156;29;20192;-30
2021/04/25 10:08:49;;;;;;;1999.90;999.90;;;;;;;10.14;67.72;-18179.28;4967174;29;20228;-30
2021/04/25 10:11:35;;;;;;;1999.90;999.90;;;;;;;10.45;62.95;-18187.56;4961922;29;20199;-30
2021/04/25 10:14:22;;;;;;;1999.90;999.90;;;;;;;10.15;66.82;-18179.53;4959668;29;20214;-30
2021/04/25 10:17:08;;;;;;;1999.90;999.90;;;;;;;11.39;63.47;-18212.28;4965525;29;20207;-30
2021/04/25 10:19:58;;;;;;;1999.90;999.90;;;;;;;12.40;58.97;-18239.00;4961313;29;20212;-30
2021/04/25 10:22:46;;;;;;;1999.90;999.90;;;;;;;11.03;60.03;-18202.94;4961821;29;20630;-31
2021/04/25 10:25:35;;;;;;;1999.90;999.90;;;;;;;10.40;63.46;-18186.22;4961976;29;20619;-30
2021/04/25 10:28:29;;;;;;;1999.90;999.90;;;;;;;11.47;61.73;-18214.31;4961737;29;20204;-30
2021/04/25 10:31:21;;;;;;;1999.90;999.90;;;;;;;10.62;62.61;-18192.13;4960730;29;20204;-30
2021/04/25 10:34:08;;;;;;;1999.90;999.90;;;;;;;11.37;58.82;-18211.91;4961678;29;20615;-30
2021/04/25 10:37:05;;;;;;;1999.90;999.90;;;;;;;10.55;67.01;-18190.25;4959976;29;20598;-30
2021/04/25 10:39:56;;;;;;;1999.90;999.90;;;;;;;10.94;61.04;-18200.53;4959099;29;20200;-30
2021/04/25 10:42:54;;;;;;;1999.90;999.90;;;;;;;11.22;63.50;-18207.75;4944392;29;20256;-30
2021/04/25 10:45:59;;;;;;;1999.90;999.90;;;;;;;10.90;62.37;-18199.34;4943268;29;20204;-31
2021/04/25 10:48:49;;;;;;;1999.90;999.90;;;;;;;11.57;58.50;-18216.97;4950646;29;20606;-31
2021/04/25 10:52:21;;;;;;;1999.90;999.90;;;;;;;12.20;58.16;-18233.53;4959401;29;20219;-31
2021/04/25 10:55:31;;;;;;;1999.90;999.90;;;;;;;12.07;59.52;-18230.34;4959497;29;20232;-30
2021/04/25 10:58:21;;;;;;;1999.90;999.90;;;;;;;11.47;60.30;-18214.44;4960319;29;20476;-30
2021/04/25 11:01:09;;;;;;;1999.90;999.90;;;;;;;11.65;57.46;-18219.25;4959359;29;20339;-31
2021/04/25 11:03:54;;;;;;;1999.90;999.90;;;;;;;11.92;55.44;-18226.31;4959349;29;20212;-31
2021/04/25 11:06:41;;;;;;;1999.90;999.90;;;;;;;12.03;55.70;-18229.13;4958846;29;20200;-30
2021/04/25 11:09:55;;;;;;;1999.90;999.90;;;;;;;11.56;57.99;-18216.84;4959088;28;20228;-30
2021/04/25 11:12:46;;;;;;;1999.90;999.90;;;;;;;11.51;57.35;-18215.50;4958060;29;20272;-30
2021/04/25 11:15:52;;;;;;;1999.90;999.90;;;;;;;11.69;56.96;-18220.19;4959116;29;20231;-31
2021/04/25 11:18:50;;;;;;;1999.90;999.90;;;;;;;12.44;54.89;-18239.94;4959119;29;20209;-31
2021/04/25 11:21:42;;;;;;;1999.90;999.90;;;;;;;10.82;58.02;-18197.19;4961656;29;20205;-30
2021/04/25 11:24:41;;;;;;;1999.90;999.90;;;;;;;12.30;54.48;-18236.22;4962910;29;20202;-44
2021/04/25 11:27:35;;;;;;;1999.90;999.90;;;;;;;10.96;55.31;-18200.94;4959985;29;20211;-30
2021/04/25 11:30:40;;;;;;;1999.90;999.90;;;;;;;12.38;56.60;-18238.47;4958093;29;20234;-30
2021/04/25 11:33:37;;;;;;;1999.90;999.90;;;;;;;11.90;56.74;-18225.78;4959046;29;20205;-30
2021/04/25 11:36:41;;;;;;;1999.90;999.90;;;;;;;11.49;56.43;-18214.84;4940027;29;20234;-31
2021/04/25 11:39:32;;;;;;;1999.90;999.90;;;;;;;13.43;51.21;-18265.97;4939867;29;20206;-31
2021/04/25 11:42:27;;;;;;;1999.90;999.90;;;;;;;14.88;48.51;-18304.09;4939672;29;20204;-29
2021/04/25 11:45:22;;;;;;;1999.90;999.90;;;;;;;12.49;49.09;-18241.28;4941507;29;20249;-30
2021/04/25 11:48:14;;;;;;;1999.90;999.90;;;;;;;11.44;54.42;-18213.50;4941526;29;20253;-30
2021/04/25 11:51:00;;;;;;;1999.90;999.90;;;;;;;11.10;57.42;-18204.69;4941260;29;20704;-30
2021/04/25 11:53:54;;;;;;;1999.90;999.90;;;;;;;12.13;55.60;-18231.66;4940310;29;20251;-30
2021/04/25 11:56:40;;;;;;;1999.90;999.90;;;;;;;12.41;52.41;-18239.28;4941727;29;20267;-30
2021/04/25 11:59:27;;;;;;;1999.90;999.90;;;;;;;12.39;56.84;-18238.75;4941141;29;20290;-30
2021/04/25 12:02:14;;;;;;;1999.90;999.90;;;;;;;12.96;53.61;-18253.69;4952232;29;20326;-30
2021/04/25 12:05:02;;;;;;;1999.90;999.90;;;;;;;12.13;52.79;-18231.81;4953158;29;20194;-30
2021/04/25 12:07:52;;;;;;;1999.90;999.90;;;;;;;13.71;49.95;-18273.31;4943235;29;20206;-30
2021/04/25 12:10:42;;;;;;;1999.90;999.90;;;;;;;12.93;48.99;-18252.75;4943296;29;20593;-30
2021/04/25 12:13:32;;;;;;;1999.90;999.90;;;;;;;12.13;56.71;-18231.66;4941378;29;20209;-30
2021/04/25 12:16:18;;;;;;;1999.90;999.90;;;;;;;11.25;56.03;-18208.69;4941144;29;20233;-30
2021/04/25 12:19:23;;;;;;;1999.90;999.90;;;;;;;11.86;55.44;-18224.72;4941310;29;20213;-30
2021/04/25 12:22:09;;;;;;;1999.90;999.90;;;;;;;12.12;56.28;-18231.53;4943031;29;20286;-30
2021/04/25 12:24:57;;;;;;;1999.90;999.90;;;;;;;13.63;51.87;-18271.31;4944929;29;20472;-31